Time,TemperatureF,DewpointF,PressureIn,WindDirection,WindDirectionDegrees,WindSpeedMPH,WindSpeedGustMPH,Humidity,HourlyPrecipIn,Conditions,Clouds,dailyrainin,SoftwareType,DateUTC
2013-02-06 00:00:00,65.6,61.6,30.06,West,259,0.0,0.0,87,0.00,,,0.00,Wunderground v.1.15,2013-02-06 05:00:00,
2013-02-06 00:09:00,65.2,61.2,30.06,West,259,0.0,0.0,87,0.00,,,0.00,Wunderground v.1.15,2013-02-06 05:09:00,
2013-02-06 00:20:00,65.0,61.4,30.06,West,259,0.0,0.0,88,0.00,,,0.00,Wunderground v.1.15,2013-02-06 05:20:00,
2013-02-06 00:30:00,64.7,61.4,30.06,West,259,0.0,0.0,89,0.00,,,0.00,Wunderground v.1.15,2013-02-06 05:30:00,
2013-02-06 00:40:00,65.0,61.7,30.06,West,260,0.0,0.0,89,0.00,,,0.00,Wunderground v.1.15,2013-02-06 05:40:00,
2013-02-06 00:50:00,64.8,61.5,30.06,West,260,0.0,0.0,89,0.00,,,0.00,Wunderground v.1.15,2013-02-06 05:50:00,
2013-02-06 01:00:00,64.9,61.6,30.06,WSW,252,0.0,0.0,89,0.00,,,0.00,Wunderground v.1.15,2013-02-06 06:00:00,
2013-02-06 01:10:00,64.7,61.7,30.06,WSW,252,0.0,0.0,90,0.00,,,0.00,Wunderground v.1.15,2013-02-06 06:10:00,
2013-02-06 01:20:00,64.3,61.0,30.06,WSW,253,0.0,0.0,89,0.00,,,0.00,Wunderground v.1.15,2013-02-06 06:20:00,
2013-02-06 01:30:00,64.1,61.1,30.06,WSW,253,0.0,0.0,90,0.00,,,0.00,Wunderground v.1.15,2013-02-06 06:30:00,
2013-02-06 01:40:00,63.8,60.8,30.06,WSW,253,0.0,0.0,90,0.00,,,0.00,Wunderground v.1.15,2013-02-06 06:40:00,
2013-02-06 01:50:00,63.8,61.1,30.05,WSW,253,0.0,0.0,91,0.00,,,0.00,Wunderground v.1.15,2013-02-06 06:50:00,
2013-02-06 02:00:00,63.7,61.0,30.05,NW,316,1.0,2.0,91,0.00,,,0.00,Wunderground v.1.15,2013-02-06 07:00:00,
2013-02-06 02:10:00,64.1,61.7,30.05,WNW,290,2.0,2.0,92,0.00,,,0.00,Wunderground v.1.15,2013-02-06 07:10:00,
2013-02-06 02:20:00,64.2,61.5,30.05,WNW,285,2.0,3.0,91,0.00,,,0.00,Wunderground v.1.15,2013-02-06 07:20:00,
2013-02-06 02:30:00,64.2,61.8,30.04,WNW,291,2.0,3.0,92,0.00,,,0.00,Wunderground v.1.15,2013-02-06 07:30:00,
2013-02-06 02:40:00,64.5,62.1,30.04,West,269,1.0,1.0,92,0.00,,,0.00,Wunderground v.1.15,2013-02-06 07:40:00,
2013-02-06 02:49:00,64.2,61.8,30.04,WSW,253,0.0,0.0,92,0.00,,,0.00,Wunderground v.1.15,2013-02-06 07:49:00,
2013-02-06 03:00:00,63.9,61.5,30.04,WSW,253,0.0,0.0,92,0.00,,,0.00,Wunderground v.1.15,2013-02-06 08:00:00,
2013-02-06 03:10:00,63.6,61.2,30.04,WSW,254,0.0,0.0,92,0.00,,,0.00,Wunderground v.1.15,2013-02-06 08:10:00,
2013-02-06 03:20:00,63.3,61.2,30.04,WSW,254,0.0,0.0,93,0.00,,,0.00,Wunderground v.1.15,2013-02-06 08:20:00,
2013-02-06 03:30:00,63.2,60.8,30.04,NNW,336,0.0,0.0,92,0.00,,,0.00,Wunderground v.1.15,2013-02-06 08:30:00,
2013-02-06 03:40:00,63.1,61.0,30.05,NNW,338,0.0,0.0,93,0.00,,,0.00,Wunderground v.1.15,2013-02-06 08:40:00,
2013-02-06 03:50:00,62.7,60.6,30.04,NNW,338,0.0,0.0,93,0.00,,,0.00,Wunderground v.1.15,2013-02-06 08:50:00,
2013-02-06 04:00:00,62.6,60.8,30.04,NNW,338,0.0,0.0,94,0.00,,,0.00,Wunderground v.1.15,2013-02-06 09:00:00,
2013-02-06 04:10:00,62.8,61.0,30.04,NNW,338,0.0,0.0,94,0.00,,,0.00,Wunderground v.1.15,2013-02-06 09:10:00,
2013-02-06 04:20:00,62.4,60.7,30.05,NNW,338,0.0,0.0,94,0.00,,,0.00,Wunderground v.1.15,2013-02-06 09:20:00,
2013-02-06 04:30:00,62.6,60.8,30.05,NNW,338,0.0,0.0,94,0.00,,,0.00,Wunderground v.1.15,2013-02-06 09:30:00,
2013-02-06 04:40:00,62.6,61.1,30.05,NNW,338,0.0,0.0,95,0.00,,,0.00,Wunderground v.1.15,2013-02-06 09:40:00,
2013-02-06 04:50:00,62.6,60.8,30.05,NNW,338,0.0,0.0,94,0.00,,,0.00,Wunderground v.1.15,2013-02-06 09:50:00,
2013-02-06 05:00:00,62.4,60.7,30.05,NNW,338,0.0,0.0,94,0.00,,,0.00,Wunderground v.1.15,2013-02-06 10:00:00,
2013-02-06 05:10:00,61.8,60.1,30.05,NNW,338,0.0,0.0,94,0.00,,,0.00,Wunderground v.1.15,2013-02-06 10:10:00,
2013-02-06 05:20:00,61.3,59.6,30.06,NNW,338,0.0,0.0,94,0.00,,,0.00,Wunderground v.1.15,2013-02-06 10:20:00,
2013-02-06 05:30:00,62.0,60.8,30.06,NW,314,0.0,0.0,96,0.00,,,0.00,Wunderground v.1.15,2013-02-06 10:30:00,
2013-02-06 05:40:00,62.0,60.6,30.06,NW,314,0.0,0.0,95,0.00,,,0.00,Wunderground v.1.15,2013-02-06 10:40:00,
2013-02-06 05:50:00,61.8,60.4,30.07,NW,314,0.0,0.0,95,0.00,,,0.00,Wunderground v.1.15,2013-02-06 10:50:00,
2013-02-06 06:00:00,61.4,60.0,30.07,NW,314,0.0,0.0,95,0.00,,,0.00,Wunderground v.1.15,2013-02-06 11:00:00,
2013-02-06 06:10:00,61.8,60.6,30.07,NW,314,0.0,0.0,96,0.00,,,0.00,Wunderground v.1.15,2013-02-06 11:10:00,
2013-02-06 06:20:00,61.7,60.3,30.08,NW,315,0.0,0.0,95,0.00,,,0.00,Wunderground v.1.15,2013-02-06 11:20:00,
2013-02-06 06:30:00,61.3,59.9,30.08,NW,314,0.0,0.0,95,0.00,,,0.00,Wunderground v.1.15,2013-02-06 11:30:00,
2013-02-06 06:40:00,61.5,60.3,30.08,NW,314,0.0,0.0,96,0.00,,,0.00,Wunderground v.1.15,2013-02-06 11:40:00,
2013-02-06 06:50:00,61.8,60.6,30.09,NW,314,0.0,0.0,96,0.00,,,0.00,Wunderground v.1.15,2013-02-06 11:50:00,
2013-02-06 07:00:00,61.6,60.2,30.09,NW,314,0.0,0.0,95,0.00,,,0.00,Wunderground v.1.15,2013-02-06 12:00:00,
2013-02-06 07:10:00,61.4,60.2,30.09,NW,314,0.0,0.0,96,0.00,,,0.00,Wunderground v.1.15,2013-02-06 12:10:00,
2013-02-06 07:20:00,61.7,60.5,30.09,NW,314,0.0,0.0,96,0.00,,,0.00,Wunderground v.1.15,2013-02-06 12:20:00,
2013-02-06 07:30:00,61.8,60.6,30.10,NW,314,0.0,0.0,96,0.00,,,0.00,Wunderground v.1.15,2013-02-06 12:30:00,
2013-02-06 07:40:00,62.0,60.8,30.10,NW,314,0.0,0.0,96,0.00,,,0.00,Wunderground v.1.15,2013-02-06 12:40:00,
2013-02-06 07:50:00,62.4,60.9,30.10,NW,314,0.0,0.0,95,0.00,,,0.00,Wunderground v.1.15,2013-02-06 12:50:00,
2013-02-06 08:00:00,63.0,61.5,30.10,WNW,291,0.0,0.0,95,0.00,,,0.00,Wunderground v.1.15,2013-02-06 13:00:00,
2013-02-06 08:10:00,63.8,62.0,30.11,NW,320,0.0,0.0,94,0.00,,,0.00,Wunderground v.1.15,2013-02-06 13:10:00,
2013-02-06 08:20:00,64.9,62.5,30.11,NNW,342,2.0,2.0,92,0.00,,,0.00,Wunderground v.1.15,2013-02-06 13:20:00,
2013-02-06 08:30:00,66.2,63.5,30.11,NW,309,2.0,3.0,91,0.00,,,0.00,Wunderground v.1.15,2013-02-06 13:30:00,
2013-02-06 08:40:00,67.4,64.0,30.11,NNW,344,1.0,1.0,89,0.00,,,0.00,Wunderground v.1.15,2013-02-06 13:40:00,
2013-02-06 08:50:00,68.4,64.7,30.11,NNW,328,0.0,1.0,88,0.00,,,0.00,Wunderground v.1.15,2013-02-06 13:50:00,
2013-02-06 09:00:00,69.5,65.1,30.12,NNW,342,2.0,2.0,86,0.00,,,0.00,Wunderground v.1.15,2013-02-06 14:00:00,
2013-02-06 09:10:00,70.5,65.4,30.12,NNW,329,2.0,2.0,84,0.00,,,0.00,Wunderground v.1.15,2013-02-06 14:10:00,
2013-02-06 09:20:00,72.0,66.6,30.12,West,271,1.0,1.0,83,0.00,,,0.00,Wunderground v.1.15,2013-02-06 14:20:00,
2013-02-06 09:30:00,73.7,66.8,30.12,NNW,339,0.0,0.0,79,0.00,,,0.00,Wunderground v.1.15,2013-02-06 14:30:00,
2013-02-06 09:40:00,74.6,67.3,30.12,ESE,110,0.0,1.0,78,0.00,,,0.00,Wunderground v.1.15,2013-02-06 14:40:00,
2013-02-06 09:50:00,76.0,67.1,30.12,SE,129,1.0,1.0,74,0.00,,,0.00,Wunderground v.1.15,2013-02-06 14:50:00,
2013-02-06 10:00:00,75.6,65.9,30.12,ESE,115,3.0,3.0,72,0.00,,,0.00,Wunderground v.1.15,2013-02-06 15:00:00,
2013-02-06 10:10:00,76.2,66.5,30.12,SSE,156,3.0,3.0,72,0.00,,,0.00,Wunderground v.1.15,2013-02-06 15:10:00,
2013-02-06 10:20:00,76.4,66.3,30.12,SE,129,3.0,3.0,71,0.00,,,0.00,Wunderground v.1.15,2013-02-06 15:20:00,
2013-02-06 10:29:00,76.7,66.6,30.12,ESE,110,3.0,4.0,71,0.00,,,0.00,Wunderground v.1.15,2013-02-06 15:29:00,
2013-02-06 10:40:00,77.1,67.0,30.12,East,94,3.0,3.0,71,0.00,,,0.00,Wunderground v.1.15,2013-02-06 15:40:00,
2013-02-06 10:50:00,76.5,67.2,30.12,East,79,3.0,5.0,73,0.00,,,0.00,Wunderground v.1.15,2013-02-06 15:50:00,
2013-02-06 11:00:00,76.6,66.9,30.11,NE,34,3.0,5.0,72,0.00,,,0.00,Wunderground v.1.15,2013-02-06 16:00:00,
2013-02-06 11:10:00,75.7,66.4,30.12,SE,135,4.0,4.0,73,0.00,,,0.00,Wunderground v.1.15,2013-02-06 16:10:00,
2013-02-06 11:20:00,77.0,67.3,30.12,ESE,104,2.0,5.0,72,0.00,,,0.00,Wunderground v.1.15,2013-02-06 16:20:00,
2013-02-06 11:30:00,76.3,66.2,30.12,ENE,65,4.0,4.0,71,0.00,,,0.00,Wunderground v.1.15,2013-02-06 16:30:00,
2013-02-06 11:40:00,75.9,67.0,30.11,ENE,57,4.0,4.0,74,0.00,,,0.00,Wunderground v.1.15,2013-02-06 16:40:00,
2013-02-06 11:50:00,76.4,66.7,30.11,ESE,118,5.0,5.0,72,0.00,,,0.00,Wunderground v.1.15,2013-02-06 16:50:00,
2013-02-06 12:00:00,77.1,67.4,30.11,East,84,4.0,4.0,72,0.00,,,0.00,Wunderground v.1.15,2013-02-06 17:00:00,
2013-02-06 12:10:00,77.4,66.8,30.10,ENE,61,4.0,4.0,70,0.00,,,0.00,Wunderground v.1.15,2013-02-06 17:10:00,
2013-02-06 12:20:00,78.1,67.1,30.10,ENE,76,4.0,6.0,69,0.00,,,0.00,Wunderground v.1.15,2013-02-06 17:20:00,
2013-02-06 12:29:00,77.6,66.6,30.10,East,82,4.0,5.0,69,0.00,,,0.00,Wunderground v.1.15,2013-02-06 17:29:00,
2013-02-06 12:40:00,77.5,66.1,30.09,ENE,71,3.0,3.0,68,0.00,,,0.00,Wunderground v.1.15,2013-02-06 17:40:00,
2013-02-06 12:50:00,77.1,66.1,30.09,SSW,193,4.0,4.0,69,0.00,,,0.00,Wunderground v.1.15,2013-02-06 17:50:00,
2013-02-06 13:00:00,76.9,65.1,30.09,ENE,70,4.0,6.0,67,0.00,,,0.00,Wunderground v.1.15,2013-02-06 18:00:00,
2013-02-06 13:09:00,76.5,65.6,30.09,ENE,77,4.0,4.0,69,0.00,,,0.00,Wunderground v.1.15,2013-02-06 18:09:00,
2013-02-06 13:20:00,76.7,65.8,30.08,SE,130,3.0,5.0,69,0.00,,,0.00,Wunderground v.1.15,2013-02-06 18:20:00,
2013-02-06 13:30:00,76.8,65.9,30.08,SSE,150,3.0,3.0,69,0.00,,,0.00,Wunderground v.1.15,2013-02-06 18:30:00,
2013-02-06 13:40:00,76.6,66.5,30.08,SE,124,3.0,3.0,71,0.00,,,0.00,Wunderground v.1.15,2013-02-06 18:40:00,
2013-02-06 13:49:00,76.5,66.0,30.08,SE,124,4.0,5.0,70,0.00,,,0.00,Wunderground v.1.15,2013-02-06 18:49:00,
2013-02-06 14:00:00,76.5,66.0,30.08,ESE,106,4.0,7.0,70,0.00,,,0.00,Wunderground v.1.15,2013-02-06 19:00:00,
2013-02-06 14:10:00,76.2,66.1,30.08,East,96,4.0,4.0,71,0.00,,,0.00,Wunderground v.1.15,2013-02-06 19:10:00,
2013-02-06 14:20:00,76.3,65.8,30.08,ESE,103,3.0,4.0,70,0.00,,,0.00,Wunderground v.1.15,2013-02-06 19:20:00,
2013-02-06 14:30:00,75.9,65.0,30.08,East,94,5.0,5.0,69,0.00,,,0.00,Wunderground v.1.15,2013-02-06 19:30:00,
2013-02-06 14:40:00,75.6,65.1,30.08,East,94,5.0,5.0,70,0.00,,,0.00,Wunderground v.1.15,2013-02-06 19:40:00,
2013-02-06 14:50:00,75.8,65.7,30.07,SSE,158,4.0,4.0,71,0.00,,,0.00,Wunderground v.1.15,2013-02-06 19:50:00,
2013-02-06 14:59:00,75.7,65.6,30.07,ESE,103,4.0,4.0,71,0.00,,,0.00,Wunderground v.1.15,2013-02-06 19:59:00,
2013-02-06 15:10:00,75.5,65.4,30.07,SE,132,4.0,4.0,71,0.00,,,0.00,Wunderground v.1.15,2013-02-06 20:10:00,
2013-02-06 15:20:00,75.3,65.2,30.07,ESE,117,5.0,5.0,71,0.00,,,0.00,Wunderground v.1.15,2013-02-06 20:20:00,
2013-02-06 15:30:00,75.4,65.3,30.06,SE,124,5.0,5.0,71,0.00,,,0.00,Wunderground v.1.15,2013-02-06 20:30:00,
2013-02-06 15:40:00,75.4,64.9,30.06,East,94,6.0,6.0,70,0.00,,,0.00,Wunderground v.1.15,2013-02-06 20:40:00,
2013-02-06 15:50:00,75.4,64.5,30.07,ESE,117,5.0,5.0,69,0.00,,,0.00,Wunderground v.1.15,2013-02-06 20:50:00,
2013-02-06 16:00:00,75.4,64.5,30.07,ESE,121,4.0,5.0,69,0.00,,,0.00,Wunderground v.1.15,2013-02-06 21:00:00,
2013-02-06 16:10:00,75.1,64.6,30.07,ESE,110,5.0,5.0,70,0.00,,,0.00,Wunderground v.1.15,2013-02-06 21:10:00,
2013-02-06 16:20:00,75.1,64.2,30.07,SE,134,5.0,5.0,69,0.00,,,0.00,Wunderground v.1.15,2013-02-06 21:20:00,
2013-02-06 16:30:00,75.2,64.3,30.07,SE,129,4.0,4.0,69,0.00,,,0.00,Wunderground v.1.15,2013-02-06 21:30:00,
2013-02-06 16:40:00,75.3,64.4,30.07,ESE,112,4.0,5.0,69,0.00,,,0.00,Wunderground v.1.15,2013-02-06 21:40:00,
2013-02-06 16:50:00,75.3,64.0,30.07,SE,124,5.0,5.0,68,0.00,,,0.00,Wunderground v.1.15,2013-02-06 21:50:00,
2013-02-06 17:00:00,75.1,63.8,30.07,East,96,3.0,4.0,68,0.00,,,0.00,Wunderground v.1.15,2013-02-06 22:00:00,
2013-02-06 17:10:00,74.9,64.0,30.07,ESE,112,4.0,4.0,69,0.00,,,0.00,Wunderground v.1.15,2013-02-06 22:10:00,
2013-02-06 17:20:00,75.0,65.4,30.07,SE,127,4.0,4.0,72,0.00,,,0.00,Wunderground v.1.15,2013-02-06 22:20:00,
2013-02-06 17:30:00,75.1,65.5,30.07,SE,141,5.0,5.0,72,0.00,,,0.00,Wunderground v.1.15,2013-02-06 22:30:00,
2013-02-06 17:40:00,74.6,64.6,30.07,SE,127,5.0,5.0,71,0.00,,,0.00,Wunderground v.1.15,2013-02-06 22:40:00,
2013-02-06 17:50:00,74.4,64.4,30.07,East,98,5.0,5.0,71,0.00,,,0.00,Wunderground v.1.15,2013-02-06 22:50:00,
2013-02-06 18:00:00,74.0,63.6,30.07,SE,129,5.0,5.0,70,0.00,,,0.00,Wunderground v.1.15,2013-02-06 23:00:00,
2013-02-06 18:10:00,73.8,63.0,30.07,East,100,4.0,7.0,69,0.00,,,0.00,Wunderground v.1.15,2013-02-06 23:10:00,
2013-02-06 18:20:00,73.8,63.0,30.07,ESE,103,4.0,4.0,69,0.00,,,0.00,Wunderground v.1.15,2013-02-06 23:20:00,
2013-02-06 18:30:00,73.8,62.6,30.08,East,85,5.0,5.0,68,0.00,,,0.00,Wunderground v.1.15,2013-02-06 23:30:00,
2013-02-06 18:40:00,73.8,61.3,30.08,ESE,107,4.0,4.0,65,0.00,,,0.00,Wunderground v.1.15,2013-02-06 23:40:00,
2013-02-06 18:50:00,73.9,62.2,30.08,ENE,78,4.0,4.0,67,0.00,,,0.00,Wunderground v.1.15,2013-02-06 23:50:00,
2013-02-06 19:00:00,73.9,62.2,30.08,East,88,4.0,10.0,67,0.00,,,0.00,Wunderground v.1.15,2013-02-07 00:00:00,
2013-02-06 19:10:00,74.0,61.9,30.08,East,92,5.0,6.0,66,0.00,,,0.00,Wunderground v.1.15,2013-02-07 00:10:00,
2013-02-06 19:20:00,73.9,61.8,30.08,ESE,108,4.0,4.0,66,0.00,,,0.00,Wunderground v.1.15,2013-02-07 00:20:00,
2013-02-06 19:30:00,73.9,61.8,30.09,East,94,4.0,6.0,66,0.00,,,0.00,Wunderground v.1.15,2013-02-07 00:30:00,
2013-02-06 19:40:00,73.9,61.8,30.09,East,96,4.0,7.0,66,0.00,,,0.00,Wunderground v.1.15,2013-02-07 00:40:00,
2013-02-06 19:50:00,73.9,61.8,30.09,ESE,110,4.0,4.0,66,0.00,,,0.00,Wunderground v.1.15,2013-02-07 00:50:00,
2013-02-06 20:00:00,73.8,62.2,30.09,East,90,5.0,8.0,67,0.00,,,0.00,Wunderground v.1.15,2013-02-07 01:00:00,
2013-02-06 20:10:00,73.7,62.5,30.09,East,93,5.0,5.0,68,0.00,,,0.00,Wunderground v.1.15,2013-02-07 01:10:00,
2013-02-06 20:20:00,73.6,62.8,30.10,ESE,108,6.0,6.0,69,0.00,,,0.00,Wunderground v.1.15,2013-02-07 01:20:00,
2013-02-06 20:30:00,73.5,63.1,30.10,East,87,5.0,5.0,70,0.00,,,0.00,Wunderground v.1.15,2013-02-07 01:30:00,
2013-02-06 20:40:00,73.4,63.0,30.10,ESE,110,5.0,6.0,70,0.00,,,0.00,Wunderground v.1.15,2013-02-07 01:40:00,
2013-02-06 20:50:00,73.4,63.4,30.10,ENE,75,5.0,5.0,71,0.00,,,0.00,Wunderground v.1.15,2013-02-07 01:50:00,
2013-02-06 21:00:00,73.2,63.6,30.09,East,101,5.0,5.0,72,0.00,,,0.00,Wunderground v.1.15,2013-02-07 02:00:00,
2013-02-06 21:10:00,73.1,63.9,30.10,East,98,5.0,9.0,73,0.00,,,0.00,Wunderground v.1.15,2013-02-07 02:10:00,
2013-02-06 21:20:00,73.1,63.5,30.10,ESE,108,5.0,5.0,72,0.00,,,0.00,Wunderground v.1.15,2013-02-07 02:20:00,
2013-02-06 21:30:00,73.1,63.9,30.10,ESE,113,4.0,6.0,73,0.00,,,0.00,Wunderground v.1.15,2013-02-07 02:30:00,
2013-02-06 21:40:00,73.0,63.8,30.10,East,96,5.0,5.0,73,0.00,,,0.00,Wunderground v.1.15,2013-02-07 02:40:00,
2013-02-06 21:50:00,73.1,64.3,30.10,SE,143,4.0,4.0,74,0.00,,,0.00,Wunderground v.1.15,2013-02-07 02:50:00,
2013-02-06 22:00:00,73.1,64.3,30.10,ESE,110,5.0,6.0,74,0.00,,,0.00,Wunderground v.1.15,2013-02-07 03:00:00,
2013-02-06 22:10:00,73.0,64.2,30.10,ESE,107,5.0,5.0,74,0.00,,,0.00,Wunderground v.1.15,2013-02-07 03:10:00,
2013-02-06 22:20:00,73.0,64.2,30.10,ESE,111,5.0,5.0,74,0.00,,,0.00,Wunderground v.1.15,2013-02-07 03:20:00,
2013-02-06 22:30:00,72.9,63.7,30.10,East,94,5.0,5.0,73,0.00,,,0.00,Wunderground v.1.15,2013-02-07 03:30:00,
2013-02-06 22:40:00,73.0,64.6,30.10,ESE,112,4.0,5.0,75,0.00,,,0.00,Wunderground v.1.15,2013-02-07 03:40:00,
2013-02-06 22:50:00,73.0,64.2,30.10,East,93,5.0,5.0,74,0.00,,,0.00,Wunderground v.1.15,2013-02-07 03:50:00,
2013-02-06 23:00:00,72.9,64.1,30.10,ESE,103,4.0,4.0,74,0.00,,,0.00,Wunderground v.1.15,2013-02-07 04:00:00,
2013-02-06 23:10:00,72.8,64.4,30.10,East,89,4.0,5.0,75,0.00,,,0.00,Wunderground v.1.15,2013-02-07 04:10:00,
2013-02-06 23:20:00,72.9,64.5,30.10,SSE,163,5.0,5.0,75,0.00,,,0.00,Wunderground v.1.15,2013-02-07 04:20:00,
2013-02-06 23:30:00,73.1,64.7,30.09,ESE,102,6.0,6.0,75,0.00,,,0.00,Wunderground v.1.15,2013-02-07 04:30:00,
2013-02-06 23:40:00,73.1,64.7,30.09,ESE,103,5.0,7.0,75,0.00,,,0.00,Wunderground v.1.15,2013-02-07 04:40:00,
2013-02-06 23:50:00,73.1,64.3,30.09,ESE,120,5.0,5.0,74,0.00,,,0.00,Wunderground v.1.15,2013-02-07 04:50:00,